createdAt,value
2022-10-18T00:04:16.917Z,14.30
2022-10-18T00:36:43.743Z,15.40
2022-10-18T00:43:09.288Z,14.00
2022-10-18T00:49:20.504Z,20.70
2022-10-18T00:56:02.008Z,16.60
2022-10-18T01:10:01.740Z,19.50
2022-10-18T01:22:35.035Z,17.10
2022-10-18T01:29:27.573Z,17.00
2022-10-18T01:55:12.214Z,21.50
2022-10-18T02:01:43.276Z,19.90
2022-10-18T02:08:12.694Z,19.70
2022-10-18T02:26:53.368Z,22.10
2022-10-18T02:32:04.566Z,16.30
2022-10-18T02:37:10.938Z,23.10
2022-10-18T02:42:16.688Z,25.50
2022-10-18T02:47:22.145Z,22.30
2022-10-18T02:52:28.012Z,19.40
2022-10-18T02:57:33.565Z,25.10
2022-10-18T03:02:38.978Z,26.00
2022-10-18T03:07:44.170Z,18.00
2022-10-18T03:12:49.403Z,19.10
2022-10-18T03:17:54.823Z,19.20
2022-10-18T03:23:00.113Z,21.80
2022-10-18T03:28:05.479Z,25.70
2022-10-18T03:33:10.745Z,20.50
2022-10-18T03:38:16.069Z,19.60
2022-10-18T03:43:21.407Z,19.70
2022-10-18T03:48:26.979Z,25.60
2022-10-18T03:53:32.515Z,23.00
2022-10-18T03:58:37.824Z,25.70
2022-10-18T04:03:43.059Z,31.30
2022-10-18T04:08:48.335Z,23.80
2022-10-18T04:13:53.568Z,23.00
2022-10-18T04:18:58.727Z,27.10
2022-10-18T04:24:04.015Z,21.00
2022-10-18T04:29:09.278Z,23.40
2022-10-18T04:34:14.825Z,18.50
2022-10-18T04:39:20.564Z,23.90
2022-10-18T04:44:26.137Z,21.30
2022-10-18T04:49:31.712Z,28.70
2022-10-18T04:54:37.278Z,23.90
2022-10-18T04:59:42.572Z,23.20
2022-10-18T05:04:47.842Z,27.70
2022-10-18T05:09:53.051Z,27.90
2022-10-18T05:14:58.420Z,23.40
2022-10-18T05:20:03.749Z,24.60
2022-10-18T05:25:09.710Z,27.00
2022-10-18T05:30:15.015Z,27.50
2022-10-18T05:35:20.324Z,33.30
2022-10-18T05:40:25.682Z,26.90
2022-10-18T05:45:30.996Z,26.40
2022-10-18T05:50:39.578Z,24.60
2022-10-18T05:55:52.926Z,32.80
2022-10-18T06:01:01.070Z,26.60
2022-10-18T06:06:07.865Z,25.80
2022-10-18T06:11:14.123Z,28.00
2022-10-18T06:16:20.860Z,23.60
2022-10-18T06:21:26.236Z,27.60
2022-10-18T06:26:31.439Z,23.50
2022-10-18T06:31:36.826Z,25.00
2022-10-18T06:36:42.126Z,33.80
2022-10-18T06:41:47.347Z,33.20
2022-10-18T06:46:58.284Z,31.80
2022-10-18T06:52:03.853Z,34.00
2022-10-18T06:57:09.595Z,30.80
2022-10-18T07:02:16.094Z,33.70
2022-10-18T07:07:21.602Z,34.40
2022-10-18T07:12:27.089Z,36.80
2022-10-18T07:17:32.688Z,38.30
2022-10-18T07:22:39.987Z,26.50
2022-10-18T07:27:45.285Z,25.70
2022-10-18T07:32:52.011Z,27.70
2022-10-18T07:37:57.343Z,27.70
2022-10-18T07:43:04.679Z,27.40
2022-10-18T07:48:10.364Z,27.90
2022-10-18T07:53:15.749Z,28.60
2022-10-18T07:58:21.023Z,32.10
2022-10-18T08:03:26.404Z,27.70
2022-10-18T08:08:31.753Z,25.50
2022-10-18T08:13:37.112Z,28.50
2022-10-18T08:18:42.331Z,25.40
2022-10-18T08:23:47.666Z,19.90
2022-10-18T08:29:03.621Z,25.40
2022-10-18T08:34:19.489Z,19.80
2022-10-18T08:39:25.218Z,20.90
2022-10-18T08:44:32.287Z,26.80
2022-10-18T08:49:46.250Z,20.70
2022-10-18T08:54:56.790Z,16.30
2022-10-18T09:00:02.832Z,25.00
2022-10-18T09:05:15.922Z,17.50
2022-10-18T09:10:25.421Z,15.20
2022-10-18T09:15:34.437Z,19.90
2022-10-18T09:20:46.759Z,19.20
2022-10-18T09:25:55.683Z,18.20
2022-10-18T09:31:06.381Z,15.50
2022-10-18T09:36:12.384Z,21.60
2022-10-18T09:41:20.417Z,18.40
2022-10-18T09:46:27.794Z,28.70
2022-10-18T09:51:35.728Z,17.70
2022-10-18T09:56:42.779Z,12.40
2022-10-18T10:01:48.079Z,14.60
2022-10-18T10:06:53.917Z,16.50
2022-10-18T10:11:59.710Z,16.40
2022-10-18T10:17:07.074Z,19.70
2022-10-18T10:22:14.070Z,16.20
2022-10-18T10:27:20.870Z,24.70
2022-10-18T10:37:38.842Z,15.20
2022-10-18T10:43:04.305Z,17.30
2022-10-18T10:48:20.196Z,17.30
2022-10-18T10:53:29.579Z,15.80
2022-10-18T10:58:38.067Z,18.60
2022-10-18T11:03:46.395Z,16.00
2022-10-18T11:08:52.921Z,21.50
2022-10-18T11:14:21.026Z,14.40
2022-10-18T11:19:33.673Z,14.10
2022-10-18T11:24:39.336Z,17.30
2022-10-18T11:29:50.053Z,16.90
2022-10-18T11:35:00.977Z,14.10
2022-10-18T11:40:11.597Z,15.90
2022-10-18T11:45:26.744Z,15.70
2022-10-18T11:50:34.822Z,17.90
2022-10-18T11:55:48.486Z,18.40
2022-10-18T12:00:56.521Z,18.70
2022-10-18T12:06:03.166Z,21.70
2022-10-18T12:11:11.119Z,14.90
2022-10-18T12:16:16.847Z,14.10
2022-10-18T12:21:25.715Z,17.10
2022-10-18T12:26:32.418Z,14.60
2022-10-18T12:31:41.060Z,18.20
2022-10-18T12:36:54.205Z,18.00
2022-10-18T12:41:59.543Z,15.00
2022-10-18T12:47:06.035Z,13.90
2022-10-18T12:52:22.958Z,16.00
2022-10-18T12:57:48.174Z,17.00
2022-10-18T13:03:13.392Z,14.80
2022-10-18T13:09:06.158Z,12.90
2022-10-18T13:15:12.618Z,15.00
2022-10-18T13:21:37.781Z,16.90
2022-10-18T13:27:39.552Z,12.20
2022-10-18T13:39:53.556Z,11.10
2022-10-18T13:46:05.276Z,14.80
2022-10-18T13:52:24.370Z,10.60
2022-10-18T13:58:41.120Z,11.70
2022-10-18T14:05:25.623Z,18.10
2022-10-18T14:11:02.321Z,17.30
2022-10-18T14:17:03.515Z,18.40
2022-10-18T14:29:25.509Z,25.10
2022-10-18T14:35:32.150Z,15.10
2022-10-18T14:41:47.129Z,13.30
2022-10-18T14:59:39.648Z,6.40
2022-10-18T15:04:46.440Z,10.40
2022-10-18T15:09:51.887Z,6.90
2022-10-18T15:14:57.562Z,6.20
2022-10-18T15:20:06.193Z,4.70
2022-10-18T15:25:15.836Z,8.50
2022-10-18T15:55:47.993Z,2.70
2022-10-18T16:49:42.448Z,5.00
2022-10-18T17:08:21.932Z,8.50
2022-10-18T17:27:47.263Z,8.10
2022-10-18T17:34:04.228Z,8.00
2022-10-18T17:46:39.386Z,7.40
2022-10-18T18:05:27.215Z,11.30
2022-10-18T18:11:48.553Z,11.30
2022-10-18T18:17:34.413Z,13.60
2022-10-18T18:22:46.317Z,9.90
2022-10-18T18:34:36.811Z,9.80
2022-10-18T18:40:31.144Z,10.10
2022-10-18T18:46:39.873Z,8.50
2022-10-18T19:18:04.341Z,13.50
2022-10-18T19:23:45.170Z,15.00
2022-10-18T19:28:50.627Z,17.10
2022-10-18T19:33:59.566Z,12.40
2022-10-18T19:39:06.342Z,13.00
2022-10-18T19:44:11.605Z,13.50
2022-10-18T19:49:17.103Z,13.90
2022-10-18T19:54:22.371Z,13.60
2022-10-18T19:59:27.828Z,15.00
2022-10-18T20:04:35.145Z,11.90
2022-10-18T20:09:40.814Z,13.90
2022-10-18T20:14:46.106Z,11.60
2022-10-18T20:19:53.699Z,14.10
2022-10-18T20:24:58.847Z,10.60
2022-10-18T20:30:07.663Z,17.90
2022-10-18T20:35:16.766Z,12.20
2022-10-18T20:40:22.433Z,12.30
2022-10-18T20:45:27.649Z,15.00
2022-10-18T20:50:32.905Z,10.00
2022-10-18T20:55:39.111Z,11.50
2022-10-18T21:00:44.652Z,10.30
2022-10-18T21:05:49.975Z,11.10
2022-10-18T21:10:55.851Z,13.10
2022-10-18T21:16:02.694Z,14.00
2022-10-18T21:26:19.407Z,13.90
2022-10-18T21:31:59.953Z,12.00
2022-10-18T21:43:28.240Z,11.50
2022-10-18T21:48:34.199Z,13.50
2022-10-18T21:53:44.826Z,12.80
2022-10-18T21:58:49.982Z,11.90
2022-10-18T22:03:56.386Z,11.00
2022-10-18T22:09:02.847Z,11.20
2022-10-18T22:14:08.367Z,12.30
2022-10-18T22:19:13.936Z,12.40
2022-10-18T22:24:19.075Z,17.60
2022-10-18T22:30:14.993Z,12.20
2022-10-18T22:49:05.321Z,10.90
2022-10-18T22:55:13.836Z,12.10
2022-10-18T23:01:43.928Z,11.80
2022-10-18T23:06:57.006Z,11.90
2022-10-18T23:12:02.149Z,15.00
2022-10-18T23:17:07.333Z,12.40
2022-10-18T23:22:14.956Z,13.00
2022-10-18T23:27:20.250Z,13.10
2022-10-18T23:32:25.907Z,13.60
2022-10-18T23:37:31.571Z,13.30
2022-10-18T23:42:37.047Z,13.20
2022-10-18T23:47:42.233Z,14.20
2022-10-18T23:52:47.333Z,18.10
2022-10-18T23:57:52.472Z,19.60
